sensor_id;sensor_type;location;lat;lon;timestamp;P1;durP1;ratioP1;P2;durP2;ratioP2
25107;SDS011;13090;53.422;7.670;2024-02-04T00:04:36;9.20;;;2.97;;
25107;SDS011;13090;53.422;7.670;2024-02-04T00:10:16;10.18;;;2.47;;
25107;SDS011;13090;53.422;7.670;2024-02-04T00:15:58;11.00;;;3.08;;
25107;SDS011;13090;53.422;7.670;2024-02-04T00:21:39;10.52;;;2.05;;
25107;SDS011;13090;53.422;7.670;2024-02-04T00:27:19;14.02;;;2.65;;
25107;SDS011;13090;53.422;7.670;2024-02-04T00:33:01;12.55;;;2.17;;
25107;SDS011;13090;53.422;7.670;2024-02-04T00:38:42;9.23;;;2.42;;
25107;SDS011;13090;53.422;7.670;2024-02-04T00:44:24;12.55;;;2.35;;
25107;SDS011;13090;53.422;7.670;2024-02-04T00:50:06;8.57;;;2.38;;
25107;SDS011;13090;53.422;7.670;2024-02-04T00:55:47;9.82;;;2.92;;
25107;SDS011;13090;53.422;7.670;2024-02-04T01:01:28;13.15;;;2.92;;
25107;SDS011;13090;53.422;7.670;2024-02-04T01:07:10;11.52;;;3.28;;
25107;SDS011;13090;53.422;7.670;2024-02-04T01:12:50;11.30;;;3.20;;
25107;SDS011;13090;53.422;7.670;2024-02-04T01:18:30;11.15;;;3.70;;
25107;SDS011;13090;53.422;7.670;2024-02-04T01:24:12;8.93;;;3.55;;
25107;SDS011;13090;53.422;7.670;2024-02-04T01:29:53;11.43;;;3.90;;
25107;SDS011;13090;53.422;7.670;2024-02-04T01:35:33;13.98;;;3.40;;
25107;SDS011;13090;53.422;7.670;2024-02-04T01:41:15;9.63;;;3.10;;
25107;SDS011;13090;53.422;7.670;2024-02-04T01:46:55;10.40;;;3.40;;
25107;SDS011;13090;53.422;7.670;2024-02-04T01:52:36;9.50;;;3.25;;
25107;SDS011;13090;53.422;7.670;2024-02-04T01:58:20;12.25;;;3.03;;
25107;SDS011;13090;53.422;7.670;2024-02-04T02:04:02;10.18;;;3.33;;
25107;SDS011;13090;53.422;7.670;2024-02-04T02:09:43;10.25;;;3.42;;
25107;SDS011;13090;53.422;7.670;2024-02-04T02:15:25;10.95;;;3.03;;
25107;SDS011;13090;53.422;7.670;2024-02-04T02:21:19;8.88;;;2.92;;
25107;SDS011;13090;53.422;7.670;2024-02-04T02:27:11;11.55;;;2.55;;
25107;SDS011;13090;53.422;7.670;2024-02-04T02:32:51;11.63;;;3.00;;
25107;SDS011;13090;53.422;7.670;2024-02-04T02:38:33;9.48;;;2.65;;
25107;SDS011;13090;53.422;7.670;2024-02-04T02:44:20;7.60;;;2.50;;
25107;SDS011;13090;53.422;7.670;2024-02-04T02:50:04;12.77;;;3.30;;
25107;SDS011;13090;53.422;7.670;2024-02-04T02:55:46;11.90;;;2.55;;
25107;SDS011;13090;53.422;7.670;2024-02-04T03:01:28;7.70;;;2.50;;
25107;SDS011;13090;53.422;7.670;2024-02-04T03:07:08;10.35;;;2.17;;
25107;SDS011;13090;53.422;7.670;2024-02-04T03:12:49;8.05;;;2.45;;
25107;SDS011;13090;53.422;7.670;2024-02-04T03:18:30;12.27;;;2.33;;
25107;SDS011;13090;53.422;7.670;2024-02-04T03:24:11;7.32;;;2.20;;
25107;SDS011;13090;53.422;7.670;2024-02-04T03:29:51;9.15;;;2.17;;
25107;SDS011;13090;53.422;7.670;2024-02-04T03:35:33;9.60;;;1.95;;
25107;SDS011;13090;53.422;7.670;2024-02-04T03:41:13;12.98;;;1.98;;
25107;SDS011;13090;53.422;7.670;2024-02-04T03:46:53;13.27;;;2.38;;
25107;SDS011;13090;53.422;7.670;2024-02-04T03:52:35;11.98;;;2.63;;
25107;SDS011;13090;53.422;7.670;2024-02-04T03:58:15;13.32;;;2.55;;
25107;SDS011;13090;53.422;7.670;2024-02-04T04:03:56;14.88;;;2.47;;
25107;SDS011;13090;53.422;7.670;2024-02-04T04:09:38;13.40;;;2.47;;
25107;SDS011;13090;53.422;7.670;2024-02-04T04:15:18;13.98;;;2.50;;
25107;SDS011;13090;53.422;7.670;2024-02-04T04:20:58;18.85;;;3.00;;
25107;SDS011;13090;53.422;7.670;2024-02-04T04:26:40;15.15;;;2.38;;
25107;SDS011;13090;53.422;7.670;2024-02-04T04:32:20;15.50;;;2.50;;
25107;SDS011;13090;53.422;7.670;2024-02-04T04:38:01;14.02;;;2.53;;
25107;SDS011;13090;53.422;7.670;2024-02-04T04:43:42;11.38;;;2.42;;
25107;SDS011;13090;53.422;7.670;2024-02-04T04:49:22;12.20;;;2.65;;
25107;SDS011;13090;53.422;7.670;2024-02-04T04:55:03;13.27;;;2.40;;
25107;SDS011;13090;53.422;7.670;2024-02-04T05:00:45;9.85;;;2.30;;
25107;SDS011;13090;53.422;7.670;2024-02-04T05:06:26;13.60;;;2.67;;
25107;SDS011;13090;53.422;7.670;2024-02-04T05:12:07;11.43;;;2.40;;
25107;SDS011;13090;53.422;7.670;2024-02-04T05:17:49;7.85;;;1.90;;
25107;SDS011;13090;53.422;7.670;2024-02-04T05:23:30;12.82;;;2.78;;
25107;SDS011;13090;53.422;7.670;2024-02-04T05:29:11;10.80;;;2.13;;
25107;SDS011;13090;53.422;7.670;2024-02-04T05:34:53;14.30;;;2.67;;
25107;SDS011;13090;53.422;7.670;2024-02-04T05:40:34;11.38;;;2.38;;
25107;SDS011;13090;53.422;7.670;2024-02-04T05:46:14;11.23;;;2.42;;
25107;SDS011;13090;53.422;7.670;2024-02-04T05:51:56;12.18;;;2.75;;
25107;SDS011;13090;53.422;7.670;2024-02-04T05:57:36;14.68;;;2.67;;
25107;SDS011;13090;53.422;7.670;2024-02-04T06:03:17;14.00;;;2.20;;
25107;SDS011;13090;53.422;7.670;2024-02-04T06:08:58;12.65;;;2.00;;
25107;SDS011;13090;53.422;7.670;2024-02-04T06:14:39;18.85;;;2.22;;
25107;SDS011;13090;53.422;7.670;2024-02-04T06:20:20;12.13;;;2.53;;
25107;SDS011;13090;53.422;7.670;2024-02-04T06:26:02;19.13;;;2.67;;
25107;SDS011;13090;53.422;7.670;2024-02-04T06:31:44;16.33;;;2.83;;
25107;SDS011;13090;53.422;7.670;2024-02-04T06:37:24;15.60;;;2.33;;
25107;SDS011;13090;53.422;7.670;2024-02-04T06:43:06;12.13;;;2.33;;
25107;SDS011;13090;53.422;7.670;2024-02-04T06:48:46;16.77;;;2.92;;
25107;SDS011;13090;53.422;7.670;2024-02-04T06:54:27;13.43;;;2.42;;
25107;SDS011;13090;53.422;7.670;2024-02-04T07:00:09;14.43;;;2.63;;
25107;SDS011;13090;53.422;7.670;2024-02-04T07:05:50;13.98;;;2.97;;
25107;SDS011;13090;53.422;7.670;2024-02-04T07:11:31;14.60;;;2.83;;
25107;SDS011;13090;53.422;7.670;2024-02-04T07:17:13;15.02;;;2.65;;
25107;SDS011;13090;53.422;7.670;2024-02-04T07:22:53;16.75;;;2.50;;
25107;SDS011;13090;53.422;7.670;2024-02-04T07:28:33;19.00;;;2.78;;
25107;SDS011;13090;53.422;7.670;2024-02-04T07:34:15;16.77;;;2.95;;
25107;SDS011;13090;53.422;7.670;2024-02-04T07:39:55;20.63;;;2.42;;
25107;SDS011;13090;53.422;7.670;2024-02-04T07:45:36;11.77;;;2.47;;
25107;SDS011;13090;53.422;7.670;2024-02-04T07:51:18;17.33;;;2.78;;
25107;SDS011;13090;53.422;7.670;2024-02-04T07:56:59;14.95;;;2.50;;
25107;SDS011;13090;53.422;7.670;2024-02-04T08:02:39;17.98;;;2.63;;
25107;SDS011;13090;53.422;7.670;2024-02-04T08:08:21;14.48;;;2.85;;
25107;SDS011;13090;53.422;7.670;2024-02-04T08:14:01;20.42;;;2.33;;
25107;SDS011;13090;53.422;7.670;2024-02-04T08:19:41;14.40;;;2.33;;
25107;SDS011;13090;53.422;7.670;2024-02-04T08:25:23;16.23;;;2.67;;
25107;SDS011;13090;53.422;7.670;2024-02-04T08:31:04;15.65;;;2.70;;
25107;SDS011;13090;53.422;7.670;2024-02-04T08:36:44;16.83;;;2.30;;
25107;SDS011;13090;53.422;7.670;2024-02-04T08:42:26;11.82;;;2.08;;
25107;SDS011;13090;53.422;7.670;2024-02-04T08:48:07;14.52;;;2.35;;
25107;SDS011;13090;53.422;7.670;2024-02-04T08:53:47;12.30;;;2.10;;
25107;SDS011;13090;53.422;7.670;2024-02-04T08:59:29;15.80;;;2.65;;
25107;SDS011;13090;53.422;7.670;2024-02-04T09:05:09;13.32;;;2.25;;
25107;SDS011;13090;53.422;7.670;2024-02-04T09:10:50;15.02;;;2.20;;
25107;SDS011;13090;53.422;7.670;2024-02-04T09:16:32;14.63;;;2.20;;
25107;SDS011;13090;53.422;7.670;2024-02-04T09:22:12;12.93;;;2.67;;
25107;SDS011;13090;53.422;7.670;2024-02-04T09:27:53;10.77;;;2.80;;
25107;SDS011;13090;53.422;7.670;2024-02-04T09:33:34;11.50;;;2.75;;
25107;SDS011;13090;53.422;7.670;2024-02-04T09:39:15;9.63;;;2.63;;
25107;SDS011;13090;53.422;7.670;2024-02-04T09:44:55;9.75;;;2.15;;
25107;SDS011;13090;53.422;7.670;2024-02-04T09:50:37;12.32;;;2.47;;
25107;SDS011;13090;53.422;7.670;2024-02-04T09:56:18;12.73;;;2.50;;
25107;SDS011;13090;53.422;7.670;2024-02-04T10:02:04;18.67;;;2.30;;
25107;SDS011;13090;53.422;7.670;2024-02-04T10:07:46;9.70;;;2.00;;
25107;SDS011;13090;53.422;7.670;2024-02-04T10:13:27;15.68;;;2.60;;
25107;SDS011;13090;53.422;7.670;2024-02-04T10:19:08;10.10;;;2.10;;
25107;SDS011;13090;53.422;7.670;2024-02-04T10:24:50;14.25;;;2.13;;
25107;SDS011;13090;53.422;7.670;2024-02-04T10:30:30;13.75;;;2.38;;
25107;SDS011;13090;53.422;7.670;2024-02-04T10:36:11;11.23;;;2.60;;
25107;SDS011;13090;53.422;7.670;2024-02-04T10:41:53;10.05;;;2.08;;
25107;SDS011;13090;53.422;7.670;2024-02-04T10:47:36;14.77;;;1.90;;
25107;SDS011;13090;53.422;7.670;2024-02-04T10:53:17;10.38;;;2.67;;
25107;SDS011;13090;53.422;7.670;2024-02-04T10:59:01;11.55;;;2.50;;
25107;SDS011;13090;53.422;7.670;2024-02-04T11:04:43;7.50;;;1.77;;
25107;SDS011;13090;53.422;7.670;2024-02-04T11:10:25;9.30;;;2.28;;
25107;SDS011;13090;53.422;7.670;2024-02-04T11:16:12;8.07;;;2.42;;
25107;SDS011;13090;53.422;7.670;2024-02-04T11:22:11;9.50;;;1.77;;
25107;SDS011;13090;53.422;7.670;2024-02-04T11:28:01;10.82;;;1.95;;
25107;SDS011;13090;53.422;7.670;2024-02-04T11:33:44;8.05;;;2.20;;
25107;SDS011;13090;53.422;7.670;2024-02-04T11:39:25;12.55;;;2.20;;
25107;SDS011;13090;53.422;7.670;2024-02-04T11:45:07;4.43;;;2.03;;
25107;SDS011;13090;53.422;7.670;2024-02-04T11:50:53;8.20;;;1.60;;
25107;SDS011;13090;53.422;7.670;2024-02-04T11:56:34;8.60;;;2.15;;
25107;SDS011;13090;53.422;7.670;2024-02-04T12:02:15;7.45;;;1.60;;
25107;SDS011;13090;53.422;7.670;2024-02-04T12:07:58;9.48;;;2.05;;
25107;SDS011;13090;53.422;7.670;2024-02-04T12:13:40;7.93;;;1.90;;
25107;SDS011;13090;53.422;7.670;2024-02-04T12:19:21;9.52;;;2.20;;
25107;SDS011;13090;53.422;7.670;2024-02-04T12:25:04;12.73;;;2.15;;
25107;SDS011;13090;53.422;7.670;2024-02-04T12:30:52;11.50;;;2.22;;
25107;SDS011;13090;53.422;7.670;2024-02-04T12:36:34;8.10;;;2.13;;
25107;SDS011;13090;53.422;7.670;2024-02-04T12:42:16;9.05;;;2.00;;
25107;SDS011;13090;53.422;7.670;2024-02-04T12:47:57;7.20;;;1.70;;
25107;SDS011;13090;53.422;7.670;2024-02-04T12:53:38;7.22;;;1.73;;
25107;SDS011;13090;53.422;7.670;2024-02-04T12:59:27;5.45;;;1.52;;
25107;SDS011;13090;53.422;7.670;2024-02-04T13:05:08;12.25;;;2.03;;
25107;SDS011;13090;53.422;7.670;2024-02-04T13:10:53;6.78;;;1.73;;
25107;SDS011;13090;53.422;7.670;2024-02-04T13:16:35;10.38;;;2.20;;
25107;SDS011;13090;53.422;7.670;2024-02-04T13:22:17;6.72;;;1.30;;
25107;SDS011;13090;53.422;7.670;2024-02-04T13:27:58;8.55;;;1.52;;
25107;SDS011;13090;53.422;7.670;2024-02-04T13:33:40;4.13;;;1.52;;
25107;SDS011;13090;53.422;7.670;2024-02-04T13:39:21;10.88;;;2.15;;
25107;SDS011;13090;53.422;7.670;2024-02-04T13:45:01;7.40;;;1.88;;
25107;SDS011;13090;53.422;7.670;2024-02-04T13:50:44;6.35;;;1.30;;
25107;SDS011;13090;53.422;7.670;2024-02-04T13:56:24;10.18;;;1.60;;
25107;SDS011;13090;53.422;7.670;2024-02-04T14:02:05;6.20;;;1.45;;
25107;SDS011;13090;53.422;7.670;2024-02-04T14:07:48;10.63;;;2.20;;
25107;SDS011;13090;53.422;7.670;2024-02-04T14:13:28;5.95;;;1.90;;
25107;SDS011;13090;53.422;7.670;2024-02-04T14:19:08;5.80;;;1.73;;
25107;SDS011;13090;53.422;7.670;2024-02-04T14:24:50;8.00;;;1.75;;
25107;SDS011;13090;53.422;7.670;2024-02-04T14:30:30;6.90;;;1.85;;
25107;SDS011;13090;53.422;7.670;2024-02-04T14:36:10;5.35;;;1.30;;
25107;SDS011;13090;53.422;7.670;2024-02-04T14:41:53;7.55;;;1.63;;
25107;SDS011;13090;53.422;7.670;2024-02-04T14:47:33;8.95;;;1.60;;
25107;SDS011;13090;53.422;7.670;2024-02-04T14:53:14;14.30;;;1.67;;
25107;SDS011;13090;53.422;7.670;2024-02-04T14:58:55;8.68;;;1.95;;
25107;SDS011;13090;53.422;7.670;2024-02-04T15:04:36;5.03;;;1.50;;
25107;SDS011;13090;53.422;7.670;2024-02-04T15:10:17;7.07;;;1.52;;
25107;SDS011;13090;53.422;7.670;2024-02-04T15:16:00;4.32;;;1.30;;
25107;SDS011;13090;53.422;7.670;2024-02-04T15:21:41;5.32;;;1.65;;
25107;SDS011;13090;53.422;7.670;2024-02-04T15:27:22;5.57;;;1.60;;
25107;SDS011;13090;53.422;7.670;2024-02-04T15:33:05;11.15;;;1.80;;
25107;SDS011;13090;53.422;7.670;2024-02-04T15:38:46;4.25;;;1.30;;
25107;SDS011;13090;53.422;7.670;2024-02-04T15:44:27;7.97;;;1.75;;
25107;SDS011;13090;53.422;7.670;2024-02-04T15:50:09;3.97;;;1.42;;
25107;SDS011;13090;53.422;7.670;2024-02-04T15:55:51;7.00;;;1.38;;
25107;SDS011;13090;53.422;7.670;2024-02-04T16:01:32;5.55;;;1.55;;
25107;SDS011;13090;53.422;7.670;2024-02-04T16:07:15;3.90;;;1.30;;
25107;SDS011;13090;53.422;7.670;2024-02-04T16:12:57;9.38;;;1.55;;
25107;SDS011;13090;53.422;7.670;2024-02-04T16:18:39;6.63;;;1.20;;
25107;SDS011;13090;53.422;7.670;2024-02-04T16:24:21;5.95;;;1.60;;
25107;SDS011;13090;53.422;7.670;2024-02-04T16:30:02;1.88;;;1.00;;
25107;SDS011;13090;53.422;7.670;2024-02-04T16:35:43;4.97;;;1.35;;
25107;SDS011;13090;53.422;7.670;2024-02-04T16:41:24;5.18;;;1.92;;
25107;SDS011;13090;53.422;7.670;2024-02-04T16:47:05;8.48;;;1.40;;
25107;SDS011;13090;53.422;7.670;2024-02-04T16:52:45;3.80;;;1.40;;
25107;SDS011;13090;53.422;7.670;2024-02-04T16:58:27;4.75;;;1.40;;
25107;SDS011;13090;53.422;7.670;2024-02-04T17:04:07;5.10;;;1.50;;
25107;SDS011;13090;53.422;7.670;2024-02-04T17:09:48;4.13;;;1.52;;
25107;SDS011;13090;53.422;7.670;2024-02-04T17:15:31;5.78;;;1.70;;
25107;SDS011;13090;53.422;7.670;2024-02-04T17:21:12;4.13;;;1.55;;
25107;SDS011;13090;53.422;7.670;2024-02-04T17:26:56;10.23;;;1.70;;
25107;SDS011;13090;53.422;7.670;2024-02-04T17:32:45;7.50;;;2.00;;
25107;SDS011;13090;53.422;7.670;2024-02-04T17:38:26;4.90;;;2.08;;
25107;SDS011;13090;53.422;7.670;2024-02-04T17:44:06;5.63;;;1.83;;
25107;SDS011;13090;53.422;7.670;2024-02-04T17:49:48;6.07;;;2.03;;
25107;SDS011;13090;53.422;7.670;2024-02-04T17:55:29;5.72;;;1.60;;
25107;SDS011;13090;53.422;7.670;2024-02-04T18:01:09;1.70;;;1.38;;
25107;SDS011;13090;53.422;7.670;2024-02-04T18:06:51;3.00;;;1.20;;
25107;SDS011;13090;53.422;7.670;2024-02-04T18:12:32;2.00;;;1.23;;
25107;SDS011;13090;53.422;7.670;2024-02-04T18:18:12;3.22;;;1.20;;
25107;SDS011;13090;53.422;7.670;2024-02-04T18:23:54;1.27;;;1.17;;
25107;SDS011;13090;53.422;7.670;2024-02-04T18:29:34;2.10;;;1.63;;
25107;SDS011;13090;53.422;7.670;2024-02-04T18:35:15;2.10;;;1.50;;
25107;SDS011;13090;53.422;7.670;2024-02-04T18:41:01;1.83;;;1.20;;
25107;SDS011;13090;53.422;7.670;2024-02-04T18:46:41;1.08;;;0.98;;
25107;SDS011;13090;53.422;7.670;2024-02-04T18:52:22;3.42;;;1.70;;
25107;SDS011;13090;53.422;7.670;2024-02-04T18:58:04;2.97;;;1.60;;
25107;SDS011;13090;53.422;7.670;2024-02-04T19:03:45;4.15;;;1.83;;
25107;SDS011;13090;53.422;7.670;2024-02-04T19:09:25;3.60;;;1.85;;
25107;SDS011;13090;53.422;7.670;2024-02-04T19:15:08;7.75;;;1.80;;
25107;SDS011;13090;53.422;7.670;2024-02-04T19:20:48;4.43;;;1.80;;
25107;SDS011;13090;53.422;7.670;2024-02-04T19:26:29;5.88;;;2.03;;
25107;SDS011;13090;53.422;7.670;2024-02-04T19:32:11;4.53;;;2.08;;
25107;SDS011;13090;53.422;7.670;2024-02-04T19:37:52;5.95;;;2.20;;
25107;SDS011;13090;53.422;7.670;2024-02-04T19:43:32;8.55;;;1.75;;
25107;SDS011;13090;53.422;7.670;2024-02-04T19:49:14;7.65;;;2.28;;
25107;SDS011;13090;53.422;7.670;2024-02-04T19:54:55;6.85;;;1.95;;
25107;SDS011;13090;53.422;7.670;2024-02-04T20:00:35;6.28;;;1.98;;
25107;SDS011;13090;53.422;7.670;2024-02-04T20:06:17;8.35;;;2.13;;
25107;SDS011;13090;53.422;7.670;2024-02-04T20:11:58;7.93;;;1.83;;
25107;SDS011;13090;53.422;7.670;2024-02-04T20:17:39;6.78;;;1.92;;
25107;SDS011;13090;53.422;7.670;2024-02-04T20:23:20;3.45;;;1.42;;
25107;SDS011;13090;53.422;7.670;2024-02-04T20:29:01;7.57;;;1.73;;
25107;SDS011;13090;53.422;7.670;2024-02-04T20:34:41;8.15;;;1.50;;
25107;SDS011;13090;53.422;7.670;2024-02-04T20:40:24;8.00;;;2.35;;
25107;SDS011;13090;53.422;7.670;2024-02-04T20:46:04;7.03;;;1.65;;
25107;SDS011;13090;53.422;7.670;2024-02-04T20:51:45;10.10;;;2.13;;
25107;SDS011;13090;53.422;7.670;2024-02-04T20:57:27;7.40;;;1.60;;
25107;SDS011;13090;53.422;7.670;2024-02-04T21:03:07;8.82;;;1.63;;
25107;SDS011;13090;53.422;7.670;2024-02-04T21:08:48;9.80;;;2.15;;
25107;SDS011;13090;53.422;7.670;2024-02-04T21:14:29;5.85;;;1.90;;
25107;SDS011;13090;53.422;7.670;2024-02-04T21:20:10;7.78;;;1.52;;
25107;SDS011;13090;53.422;7.670;2024-02-04T21:25:50;9.10;;;1.90;;
25107;SDS011;13090;53.422;7.670;2024-02-04T21:31:32;10.98;;;1.90;;
25107;SDS011;13090;53.422;7.670;2024-02-04T21:37:12;4.97;;;1.73;;
25107;SDS011;13090;53.422;7.670;2024-02-04T21:42:53;8.52;;;1.88;;
25107;SDS011;13090;53.422;7.670;2024-02-04T21:48:35;11.20;;;2.30;;
25107;SDS011;13090;53.422;7.670;2024-02-04T21:54:15;11.48;;;2.28;;
25107;SDS011;13090;53.422;7.670;2024-02-04T21:59:56;10.43;;;2.35;;
25107;SDS011;13090;53.422;7.670;2024-02-04T22:05:38;9.52;;;2.13;;
25107;SDS011;13090;53.422;7.670;2024-02-04T22:11:18;12.07;;;2.30;;
25107;SDS011;13090;53.422;7.670;2024-02-04T22:16:58;15.45;;;2.38;;
25107;SDS011;13090;53.422;7.670;2024-02-04T22:22:40;10.85;;;2.35;;
25107;SDS011;13090;53.422;7.670;2024-02-04T22:28:20;17.92;;;2.75;;
25107;SDS011;13090;53.422;7.670;2024-02-04T22:34:00;14.30;;;2.88;;
25107;SDS011;13090;53.422;7.670;2024-02-04T22:39:42;18.30;;;2.83;;
25107;SDS011;13090;53.422;7.670;2024-02-04T22:45:22;12.27;;;2.33;;
25107;SDS011;13090;53.422;7.670;2024-02-04T22:51:03;16.50;;;2.90;;
25107;SDS011;13090;53.422;7.670;2024-02-04T22:56:45;19.27;;;2.75;;
25107;SDS011;13090;53.422;7.670;2024-02-04T23:02:25;17.30;;;3.83;;
25107;SDS011;13090;53.422;7.670;2024-02-04T23:08:06;21.00;;;2.92;;
25107;SDS011;13090;53.422;7.670;2024-02-04T23:13:48;15.10;;;2.90;;
25107;SDS011;13090;53.422;7.670;2024-02-04T23:19:28;12.55;;;2.92;;
25107;SDS011;13090;53.422;7.670;2024-02-04T23:25:08;15.85;;;3.42;;
25107;SDS011;13090;53.422;7.670;2024-02-04T23:30:50;21.02;;;3.78;;
25107;SDS011;13090;53.422;7.670;2024-02-04T23:36:31;19.17;;;3.33;;
25107;SDS011;13090;53.422;7.670;2024-02-04T23:42:11;23.85;;;3.95;;
25107;SDS011;13090;53.422;7.670;2024-02-04T23:47:53;18.58;;;3.42;;
25107;SDS011;13090;53.422;7.670;2024-02-04T23:53:33;24.23;;;3.95;;
25107;SDS011;13090;53.422;7.670;2024-02-04T23:59:14;18.48;;;4.00;;
